Time;durP1;ratioP1;P1;durP2;ratioP2;P2;SDS_P1;SDS_P2;PMS_P1;PMS_P2;Temp;Humidity;BMP_temperature;BMP_pressure;BME280_temperature;BME280_humidity;BME280_pressure;Samples;Min_cycle;Max_cycle;Signal;HPM_P1;HPM_P2
2021/04/26 00:02:21;;;;;;;5.85;3.60;;;4.90;56.80;;;4.00;40.69;95316.25;4960519;28;20213;-81
2021/04/26 00:04:49;;;;;;;4.05;3.10;;;4.90;56.90;;;3.98;40.68;95313.00;5012184;28;20259;-81
2021/04/26 00:07:16;;;;;;;5.53;3.45;;;4.90;57.00;;;3.97;40.58;95312.16;4998601;28;20665;-80
2021/04/26 00:09:43;;;;;;;4.32;2.97;;;4.80;57.00;;;3.98;40.26;95315.59;5010634;28;20266;-81
2021/04/26 00:12:10;;;;;;;6.90;3.30;;;4.80;57.00;;;3.97;40.65;95309.56;5009422;28;20229;-81
2021/04/26 00:14:37;;;;;;;4.70;3.40;;;4.80;57.10;;;3.94;40.49;95301.25;5003733;28;20221;-81
2021/04/26 00:17:03;;;;;;;4.55;3.08;;;4.80;57.10;;;3.95;40.55;95303.69;5015021;28;20216;-80
2021/04/26 00:19:30;;;;;;;6.22;3.47;;;4.80;57.10;;;3.96;40.41;95309.72;4977531;28;20241;-81
2021/04/26 00:21:56;;;;;;;3.85;3.05;;;4.80;57.20;;;3.93;40.74;95297.00;4995954;28;20481;-80
2021/04/26 00:24:23;;;;;;;6.40;3.60;;;4.80;57.50;;;3.89;40.90;95296.47;5009312;28;20636;-80
2021/04/26 00:26:50;;;;;;;7.15;3.60;;;4.70;57.50;;;3.95;40.78;95302.88;4989402;28;20689;-80
2021/04/26 00:29:18;;;;;;;4.78;3.60;;;4.80;57.80;;;3.92;42.01;95293.63;4998379;28;20235;-80
2021/04/26 00:31:45;;;;;;;6.72;4.10;;;4.80;58.10;;;3.94;41.86;95301.25;4985212;28;20262;-80
2021/04/26 00:34:11;;;;;;;5.47;4.00;;;4.80;58.30;;;3.93;42.18;95297.84;5051275;28;20199;-81
2021/04/26 00:36:39;;;;;;;5.63;3.95;;;4.80;58.30;;;3.90;43.08;95305.91;5053269;28;20216;-80
2021/04/26 00:39:06;;;;;;;6.88;3.67;;;4.80;58.80;;;3.87;42.15;95303.59;5032310;28;20196;-81
2021/04/26 00:41:32;;;;;;;7.85;3.97;;;4.70;58.20;;;3.83;42.74;95292.69;5017907;28;20239;-80
2021/04/26 00:43:59;;;;;;;7.22;4.22;;;4.70;58.50;;;3.77;42.95;95295.00;5009022;28;20715;-81
2021/04/26 00:46:26;;;;;;;7.18;4.32;;;4.70;58.80;;;3.73;42.91;95293.66;5023274;28;20705;-80
2021/04/26 00:48:53;;;;;;;6.03;3.67;;;4.70;58.60;;;3.68;42.22;95301.84;4993694;28;20229;-81
2021/04/26 00:51:19;;;;;;;7.00;3.72;;;4.60;58.40;;;3.64;42.02;95298.72;5027242;28;20223;-80
2021/04/26 00:53:47;;;;;;;7.45;3.95;;;4.60;58.50;;;3.55;41.85;95288.38;5012037;28;20228;-81
2021/04/26 00:56:15;;;;;;;5.15;3.63;;;4.60;58.40;;;3.52;41.96;95303.25;5040135;28;20360;-81
2021/04/26 00:58:42;;;;;;;6.20;4.03;;;4.50;58.20;;;3.48;41.76;95301.09;5034314;28;20320;-80
2021/04/26 01:01:09;;;;;;;7.32;4.50;;;4.50;58.40;;;3.42;42.73;95299.00;4993992;28;20863;-80
2021/04/26 01:03:38;;;;;;;8.27;4.70;;;4.50;58.70;;;3.39;43.52;95289.75;5002996;28;20720;-80
2021/04/26 01:06:06;;;;;;;6.43;4.55;;;4.40;59.20;;;3.32;43.53;95286.91;5017541;28;20218;-80
2021/04/26 01:08:32;;;;;;;6.63;4.57;;;4.40;59.10;;;3.30;44.54;95286.19;5017882;28;20315;-81
2021/04/26 01:11:07;;;;;;;8.98;5.25;;;4.30;59.60;;;3.22;46.04;95288.66;4992737;28;20219;-80
2021/04/26 01:14:35;;;;;;;7.85;5.18;;;4.30;60.40;;;3.18;44.72;95289.91;4978775;28;20455;-80
2021/04/26 01:17:18;;;;;;;6.85;4.80;;;4.30;60.20;;;3.15;44.46;95279.78;4912435;28;20234;-80
2021/04/26 01:20:25;;;;;;;7.60;4.53;;;4.20;60.40;;;3.10;43.73;95281.97;4949845;28;20728;-80
2021/04/26 01:23:19;;;;;;;8.15;4.65;;;4.20;60.30;;;3.03;43.74;95279.13;4979598;28;20250;-80
2021/04/26 01:25:48;;;;;;;6.60;4.70;;;4.10;60.30;;;2.98;43.44;95281.28;4963187;28;20309;-81
2021/04/26 01:28:38;;;;;;;8.35;4.47;;;4.10;59.80;;;2.96;44.52;95285.81;4952830;28;20593;-80
2021/04/26 01:31:16;;;;;;;8.40;5.07;;;4.00;60.20;;;2.93;44.92;95286.91;4974943;28;20233;-81
2021/04/26 01:33:51;;;;;;;6.68;4.85;;;4.00;60.50;;;2.90;44.53;95276.78;4982762;28;20248;-80
2021/04/26 01:36:26;;;;;;;6.30;4.68;;;4.00;60.30;;;2.91;44.28;95280.22;4968031;28;20211;-80
2021/04/26 01:38:57;;;;;;;7.68;5.38;;;3.90;60.30;;;2.92;43.92;95276.66;4948026;28;20211;-81
2021/04/26 01:41:27;;;;;;;6.20;4.45;;;3.90;60.20;;;2.90;43.90;95279.38;4978183;28;20213;-80
2021/04/26 01:43:56;;;;;;;6.93;4.80;;;3.90;60.10;;;2.87;43.56;95282.25;5000535;28;20621;-80
2021/04/26 01:46:25;;;;;;;8.52;4.30;;;3.90;61.00;;;2.83;43.01;95283.47;4982112;28;20350;-80
2021/04/26 01:48:56;;;;;;;6.57;4.20;;;3.80;59.90;;;2.78;43.02;95286.44;5004289;28;20232;-80
2021/04/26 01:51:25;;;;;;;11.85;4.53;;;3.80;59.90;;;2.74;42.82;95276.50;5047437;28;20266;-79
2021/04/26 01:54:01;;;;;;;7.70;4.18;;;3.80;59.80;;;2.71;42.87;95282.75;5019099;28;20201;-80
2021/04/26 01:56:33;;;;;;;6.82;4.43;;;3.70;60.00;;;2.69;43.22;95277.72;4977836;28;20216;-80
2021/04/26 01:59:00;;;;;;;7.63;4.50;;;3.70;59.90;;;2.58;43.26;95270.06;5033833;28;20204;-80
2021/04/26 02:01:28;;;;;;;7.15;4.60;;;3.70;59.80;;;2.58;43.74;95277.84;5024732;28;20678;-80
2021/04/26 02:04:03;;;;;;;9.55;5.10;;;3.70;60.00;;;2.55;44.37;95273.75;5012528;28;20252;-80
2021/04/26 02:06:42;;;;;;;9.80;4.90;;;3.60;60.20;;;2.58;44.25;95280.44;4988547;28;20307;-80
2021/04/26 02:09:18;;;;;;;7.00;4.65;;;3.60;60.30;;;2.59;44.45;95271.72;5017802;28;20240;-80
2021/04/26 02:11:48;;;;;;;7.88;4.50;;;3.60;60.50;;;2.59;44.12;95261.34;4990814;28;20297;-81
2021/04/26 02:14:19;;;;;;;6.55;4.85;;;3.50;60.40;;;2.63;44.25;95260.13;4995018;28;20217;-79
2021/04/26 02:16:46;;;;;;;7.10;4.57;;;3.60;60.50;;;2.66;43.84;95256.44;4990071;28;20232;-80
2021/04/26 02:19:13;;;;;;;7.07;4.20;;;3.60;60.50;;;2.67;43.72;95251.16;4986906;28;20202;-80
2021/04/26 02:21:44;;;;;;;6.32;4.18;;;3.60;60.50;;;2.67;43.53;95248.56;4972422;28;20206;-80
2021/04/26 02:24:11;;;;;;;6.88;4.68;;;3.60;60.50;;;2.61;43.56;95245.69;4971468;28;20285;-81
2021/04/26 02:26:38;;;;;;;6.88;4.25;;;3.60;60.50;;;2.61;43.72;95250.84;4996648;28;20217;-80
2021/04/26 02:29:05;;;;;;;6.22;4.22;;;3.60;60.40;;;2.55;43.21;95245.25;4994035;28;20677;-80
2021/04/26 02:31:35;;;;;;;5.03;3.90;;;3.50;60.30;;;2.54;43.50;95250.59;4980111;28;20704;-79
2021/04/26 02:34:13;;;;;;;5.05;3.63;;;3.50;60.50;;;2.50;43.24;95252.63;4973997;28;20237;-80
2021/04/26 02:36:51;;;;;;;5.57;3.88;;;3.50;60.90;;;2.48;43.45;95248.50;4968083;28;20624;-80
2021/04/26 02:39:19;;;;;;;6.65;4.00;;;3.50;60.70;;;2.46;43.06;95260.78;4992288;28;20663;-80
2021/04/26 02:41:47;;;;;;;5.07;3.83;;;3.40;60.30;;;2.44;42.95;95254.91;4964388;28;20245;-79
2021/04/26 02:44:29;;;;;;;6.53;4.22;;;3.40;60.40;;;2.42;43.33;95243.88;4981777;28;20696;-80
2021/04/26 02:47:08;;;;;;;7.15;3.92;;;3.40;61.00;;;2.40;43.21;95246.59;4948994;28;20260;-80
2021/04/26 02:49:41;;;;;;;7.72;4.10;;;3.40;60.90;;;2.39;42.93;95239.78;4979845;28;20255;-80
2021/04/26 02:52:14;;;;;;;6.22;3.95;;;3.30;60.30;;;2.37;43.38;95236.53;5005597;28;20319;-80
2021/04/26 02:54:44;;;;;;;6.90;4.13;;;3.30;60.40;;;2.36;42.91;95234.88;5000215;28;20347;-79
2021/04/26 02:57:12;;;;;;;5.80;3.80;;;3.30;60.60;;;2.36;43.34;95238.28;4995803;28;20317;-80
2021/04/26 02:59:42;;;;;;;6.10;4.00;;;3.30;60.50;;;2.36;43.32;95238.28;4998745;28;20266;-80
2021/04/26 03:02:10;;;;;;;7.25;4.80;;;3.30;60.60;;;2.35;43.24;95233.22;4997570;28;20235;-80
2021/04/26 03:05:03;;;;;;;5.85;4.20;;;3.30;60.50;;;2.32;43.19;95223.97;4946111;28;20222;-80
2021/04/26 03:07:34;;;;;;;6.47;4.25;;;3.30;60.50;;;2.31;43.80;95232.69;4941173;28;20233;-80
2021/04/26 03:10:12;;;;;;;6.68;4.05;;;3.30;60.60;;;2.29;43.85;95223.41;4999734;28;20236;-80
2021/04/26 03:12:42;;;;;;;6.30;4.20;;;3.30;61.30;;;2.24;44.26;95218.63;4998429;28;20220;-80
2021/04/26 03:15:14;;;;;;;6.32;4.32;;;3.20;60.90;;;2.21;44.43;95211.97;5018921;28;20300;-80
2021/04/26 03:17:43;;;;;;;6.47;4.85;;;3.20;61.10;;;2.15;45.34;95199.53;5030107;28;20263;-80
2021/04/26 03:20:15;;;;;;;6.57;4.32;;;3.20;61.10;;;2.18;45.51;95191.50;5011492;28;20201;-80
2021/04/26 03:22:58;;;;;;;8.38;4.60;;;3.20;61.70;;;2.18;46.10;95190.69;5018007;28;20234;-80
2021/04/26 03:25:25;;;;;;;6.78;4.35;;;3.20;61.70;;;2.20;45.99;95199.16;4985848;28;20259;-79
2021/04/26 03:27:55;;;;;;;6.07;4.00;;;3.20;61.70;;;2.22;45.47;95199.81;4973017;28;20226;-79
2021/04/26 03:30:27;;;;;;;5.63;4.15;;;3.20;61.70;;;2.23;44.91;95194.53;4957676;28;20775;-80
2021/04/26 03:33:10;;;;;;;5.90;4.13;;;3.20;61.70;;;2.23;44.52;95184.19;4939779;28;20704;-81
2021/04/26 03:35:38;;;;;;;5.30;4.05;;;3.20;61.70;;;2.26;44.62;95185.69;4969862;28;20236;-79
2021/04/26 03:38:06;;;;;;;7.03;3.92;;;3.20;61.70;;;2.27;44.60;95178.72;4971944;28;20308;-80
2021/04/26 03:40:37;;;;;;;7.70;4.18;;;3.20;61.60;;;2.29;44.67;95177.63;4982754;28;20256;-80
2021/04/26 03:43:05;;;;;;;5.95;3.92;;;3.20;61.70;;;2.30;44.30;95174.09;4960525;28;20226;-80
2021/04/26 03:46:02;;;;;;;6.43;3.78;;;3.20;61.70;;;2.32;44.49;95169.63;4951678;28;20247;-80
2021/04/26 03:48:59;;;;;;;6.35;3.70;;;3.20;61.70;;;2.34;44.33;95164.28;4982668;28;20225;-80
2021/04/26 03:51:47;;;;;;;8.32;4.32;;;3.20;61.50;;;2.34;45.26;95174.66;4986705;28;20255;-79
2021/04/26 03:54:33;;;;;;;6.70;4.35;;;3.20;61.70;;;2.35;45.51;95165.94;5022930;28;20226;-81
2021/04/26 03:57:02;;;;;;;6.10;4.03;;;3.30;61.90;;;2.35;45.24;95158.97;5013663;28;20768;-79
2021/04/26 03:59:29;;;;;;;6.68;4.05;;;3.30;61.80;;;2.39;45.13;95159.53;5000119;28;20209;-80
2021/04/26 04:01:56;;;;;;;6.28;4.25;;;3.30;62.00;;;2.43;45.03;95157.47;5008338;28;20224;-80
2021/04/26 04:04:26;;;;;;;6.25;3.80;;;3.30;62.10;;;2.44;44.95;95157.38;5012667;28;20196;-80
2021/04/26 04:07:19;;;;;;;5.45;3.78;;;3.40;62.20;;;2.50;44.91;95154.25;4985754;28;20323;-79
2021/04/26 04:10:07;;;;;;;6.85;4.57;;;3.30;61.90;;;2.56;44.67;95158.88;5005070;28;20278;-79
2021/04/26 04:12:57;;;;;;;7.25;5.03;;;3.40;62.20;;;2.64;44.66;95158.19;4977670;28;20241;-81
2021/04/26 04:15:24;;;;;;;7.25;4.50;;;3.40;62.00;;;2.69;44.66;95148.22;4971381;28;20912;-79
2021/04/26 04:17:51;;;;;;;7.20;5.22;;;3.50;62.20;;;2.77;44.96;95155.31;4988786;28;20214;-80
2021/04/26 04:20:23;;;;;;;6.80;5.10;;;3.50;62.20;;;2.83;44.69;95154.78;5004468;28;20247;-80
2021/04/26 04:22:52;;;;;;;12.45;7.65;;;3.50;62.10;;;2.91;44.51;95153.25;5015633;28;20317;-80
2021/04/26 04:25:20;;;;;;;11.38;6.38;;;3.60;62.20;;;2.97;44.41;95155.31;4991530;28;20731;-80
2021/04/26 04:27:48;;;;;;;9.93;6.38;;;3.60;62.30;;;3.02;44.56;95146.13;5032967;28;20220;-80
2021/04/26 04:30:16;;;;;;;9.65;6.30;;;3.70;62.20;;;3.09;44.56;95148.16;5010655;28;20271;-79
2021/04/26 04:33:01;;;;;;;7.53;5.78;;;3.70;62.30;;;3.14;44.89;95148.59;5011587;28;20230;-80
2021/04/26 04:35:52;;;;;;;8.20;5.38;;;3.80;62.40;;;3.20;44.62;95135.06;5010225;28;20241;-80
2021/04/26 04:38:58;;;;;;;7.22;4.60;;;3.90;62.50;;;3.25;44.43;95127.69;4949188;28;20218;-80
2021/04/26 04:41:43;;;;;;;7.05;4.70;;;3.90;62.30;;;3.34;44.82;95133.78;4985707;28;20276;-80
2021/04/26 04:44:11;;;;;;;7.93;4.90;;;3.90;62.30;;;3.41;44.87;95134.06;4999419;28;20207;-81
2021/04/26 04:46:38;;;;;;;7.40;4.75;;;4.00;62.30;;;3.49;44.67;95134.97;4980756;28;20209;-80
2021/04/26 04:49:31;;;;;;;7.95;4.85;;;4.10;62.50;;;3.55;44.74;95124.97;5014730;28;20601;-81
2021/04/26 04:51:58;;;;;;;6.03;4.80;;;4.10;62.40;;;3.63;44.55;95123.28;5014160;28;20247;-80
2021/04/26 04:54:25;;;;;;;8.13;5.82;;;4.20;62.40;;;3.69;44.90;95114.94;4992435;28;20304;-80
2021/04/26 04:56:58;;;;;;;6.57;4.97;;;4.20;62.50;;;3.76;44.69;95111.75;5011599;28;20736;-80
2021/04/26 04:59:28;;;;;;;9.35;5.38;;;4.30;62.60;;;3.84;44.92;95112.69;4964247;28;20684;-80
2021/04/26 05:02:06;;;;;;;7.50;4.82;;;4.40;62.60;;;3.91;45.14;95110.31;4972811;28;20227;-80
2021/04/26 05:04:52;;;;;;;7.28;5.22;;;4.50;62.70;;;3.97;45.10;95114.94;5012371;28;20240;-80
2021/04/26 05:07:37;;;;;;;8.75;5.05;;;4.50;62.70;;;4.01;44.85;95113.66;4977958;28;20858;-80
2021/04/26 05:10:22;;;;;;;7.47;4.80;;;4.60;62.70;;;4.06;45.04;95115.03;4986109;28;20242;-79
2021/04/26 05:13:09;;;;;;;9.90;4.78;;;4.60;62.70;;;4.13;45.01;95122.06;4973675;28;20243;-81
2021/04/26 05:15:40;;;;;;;6.93;4.60;;;4.70;62.70;;;4.19;44.90;95118.09;5028437;28;20208;-80
2021/04/26 05:18:07;;;;;;;8.15;5.05;;;4.80;62.90;;;4.23;45.06;95119.41;5011362;28;20747;-80
2021/04/26 05:20:35;;;;;;;6.93;4.72;;;4.80;62.90;;;4.30;45.04;95119.66;5008331;28;20204;-80
2021/04/26 05:23:03;;;;;;;7.15;5.00;;;4.80;62.80;;;4.33;44.89;95112.38;5001809;28;20228;-80
2021/04/26 05:25:31;;;;;;;8.15;5.13;;;4.90;63.00;;;4.42;45.22;95113.25;4990282;28;20212;-80
2021/04/26 05:27:58;;;;;;;8.70;5.38;;;4.90;62.90;;;4.51;44.79;95115.94;5006507;28;20720;-80
2021/04/26 05:30:25;;;;;;;8.93;5.63;;;5.00;63.00;;;4.61;45.00;95119.25;4985130;28;20257;-80
2021/04/26 05:32:58;;;;;;;7.72;5.68;;;5.10;63.10;;;4.68;45.35;95116.91;4996871;28;20243;-80
2021/04/26 05:35:44;;;;;;;7.55;5.28;;;5.20;63.10;;;4.76;45.17;95122.97;4990371;28;20228;-81
2021/04/26 05:38:18;;;;;;;9.07;5.35;;;5.20;63.10;;;4.86;45.34;95120.28;5004586;28;20229;-80
2021/04/26 05:40:48;;;;;;;9.43;5.95;;;5.30;63.40;;;4.95;45.23;95121.16;4991298;28;20225;-80
2021/04/26 05:43:16;;;;;;;8.57;5.72;;;5.40;63.30;;;5.05;45.47;95123.66;4981581;28;20256;-81
2021/04/26 05:45:46;;;;;;;6.53;5.32;;;5.50;63.40;;;5.13;45.41;95119.31;5016997;28;20291;-81
2021/04/26 05:48:18;;;;;;;6.78;5.32;;;5.60;63.40;;;5.25;45.50;95127.69;5008857;28;20691;-81
2021/04/26 05:50:45;;;;;;;6.82;5.10;;;5.60;63.40;;;5.35;45.29;95130.19;5022862;28;20689;-80
2021/04/26 05:53:12;;;;;;;8.52;5.20;;;5.70;63.50;;;5.44;45.30;95124.06;5015533;28;20250;-80
2021/04/26 05:55:39;;;;;;;7.75;5.90;;;5.80;63.40;;;5.51;45.60;95123.44;5038327;28;20208;-81
2021/04/26 05:58:05;;;;;;;5.40;4.80;;;6.00;63.40;;;5.58;45.50;95122.66;4998611;28;20641;-80
2021/04/26 06:00:32;;;;;;;6.78;5.35;;;6.00;63.20;;;5.60;45.29;95120.72;5016055;28;20291;-80
2021/04/26 06:02:59;;;;;;;8.05;5.53;;;6.10;63.30;;;5.72;45.25;95136.88;5003982;28;21610;-80
2021/04/26 06:05:27;;;;;;;7.35;5.10;;;6.20;63.30;;;5.81;45.38;95137.75;4995878;28;20227;-79
2021/04/26 06:07:55;;;;;;;8.90;5.20;;;6.20;63.30;;;5.90;45.33;95141.97;5012080;28;20223;-81
2021/04/26 06:10:21;;;;;;;7.82;5.50;;;6.30;63.30;;;6.00;45.21;95139.28;4986528;28;20690;-80
2021/04/26 06:12:48;;;;;;;9.60;5.55;;;6.40;63.30;;;6.08;45.22;95139.31;5000322;28;20222;-80
2021/04/26 06:15:15;;;;;;;5.20;4.65;;;6.50;63.40;;;6.15;45.19;95136.91;4989815;28;20597;-81
2021/04/26 06:17:41;;;;;;;9.88;5.68;;;6.50;63.30;;;6.24;45.26;95138.53;4970503;28;20222;-79
2021/04/26 06:20:09;;;;;;;8.70;5.40;;;6.60;63.20;;;6.33;45.34;95141.19;5012388;28;20399;-80
2021/04/26 06:22:36;;;;;;;8.35;5.05;;;6.70;63.20;;;6.39;45.08;95137.94;5012948;28;20229;-79
2021/04/26 06:25:03;;;;;;;9.82;6.22;;;6.80;63.20;;;6.47;45.50;95137.13;5039893;28;20206;-79
2021/04/26 06:27:30;;;;;;;9.32;5.07;;;6.80;63.20;;;6.57;45.26;95133.38;5018945;28;20231;-81
2021/04/26 06:29:57;;;;;;;6.93;5.07;;;6.90;63.20;;;6.70;45.07;95130.31;4983943;28;20227;-80
2021/04/26 06:32:24;;;;;;;13.07;7.40;;;7.00;63.20;;;6.85;45.25;95140.09;5013151;28;20220;-79
2021/04/26 06:34:51;;;;;;;12.55;7.53;;;7.10;63.40;;;7.00;45.31;95133.25;5011072;28;20258;-81
2021/04/26 06:37:19;;;;;;;9.57;6.82;;;7.20;63.40;;;7.17;45.10;95135.84;5022359;28;20298;-80
2021/04/26 06:39:45;;;;;;;10.13;7.00;;;7.40;63.50;;;7.30;45.38;95111.84;5036853;28;20231;-80
2021/04/26 06:42:13;;;;;;;8.25;5.95;;;7.50;63.50;;;7.47;44.96;95113.44;5016260;28;20253;-80
2021/04/26 06:44:40;;;;;;;8.15;6.22;;;7.60;63.50;;;7.61;44.97;95119.75;4997437;28;20259;-80
2021/04/26 06:47:07;;;;;;;6.43;5.38;;;7.70;63.50;;;7.77;45.25;95111.06;5005326;28;20280;-80
2021/04/26 06:49:34;;;;;;;7.25;5.45;;;7.80;63.40;;;7.91;44.63;95098.25;5030639;28;20243;-80
2021/04/26 06:52:00;;;;;;;7.45;5.22;;;8.00;63.30;;;8.03;44.80;95102.13;4998519;28;20240;-80
2021/04/26 06:54:28;;;;;;;7.75;5.50;;;8.10;63.20;;;8.18;44.57;95103.03;5035971;28;20663;-80
2021/04/26 06:56:54;;;;;;;7.85;5.60;;;8.20;63.20;;;8.32;44.55;95106.72;5012082;28;20288;-80
2021/04/26 06:59:22;;;;;;;7.60;5.93;;;8.30;63.10;;;8.48;44.42;95097.97;5012971;28;20295;-81
2021/04/26 07:01:50;;;;;;;7.55;5.40;;;8.50;63.10;;;8.65;44.18;95103.91;5001158;28;20333;-80
2021/04/26 07:04:16;;;;;;;7.03;5.05;;;8.60;63.00;;;8.80;44.08;95106.56;4967630;28;20312;-81
2021/04/26 07:06:43;;;;;;;8.20;5.03;;;8.70;62.80;;;8.90;43.76;95105.50;5034667;28;20299;-81
2021/04/26 07:09:10;;;;;;;7.82;5.45;;;8.90;62.60;;;9.06;43.46;95109.81;5018861;28;20564;-80
2021/04/26 07:11:38;;;;;;;7.30;5.38;;;9.00;62.50;;;9.16;43.61;95099.88;4996482;28;20662;-80
2021/04/26 07:14:07;;;;;;;9.40;6.00;;;9.10;62.30;;;9.25;43.12;95100.59;4958810;28;20818;-81
2021/04/26 07:16:35;;;;;;;8.75;5.35;;;9.30;62.30;;;9.33;43.12;95095.28;5014518;28;20205;-80
2021/04/26 07:19:03;;;;;;;7.70;4.97;;;9.40;62.00;;;9.40;43.14;95098.81;5002632;28;20206;-81
2021/04/26 07:21:30;;;;;;;6.75;4.65;;;9.40;61.80;;;9.48;42.61;95097.91;4983018;28;20198;-80
2021/04/26 07:23:58;;;;;;;11.50;4.82;;;9.50;61.70;;;9.56;42.71;95105.69;4989574;28;20248;-80
2021/04/26 07:26:24;;;;;;;7.72;5.18;;;9.70;61.70;;;9.61;42.50;95095.47;4993484;28;20232;-81
2021/04/26 07:28:51;;;;;;;8.20;5.35;;;9.70;61.70;;;9.68;42.52;95089.50;5004000;28;20763;-80
2021/04/26 07:31:18;;;;;;;7.32;4.90;;;9.80;61.40;;;9.76;42.65;95103.34;4986856;28;20293;-80
2021/04/26 07:33:44;;;;;;;7.53;4.85;;;9.80;61.40;;;9.85;42.31;95100.63;5011503;28;20225;-80
2021/04/26 07:36:12;;;;;;;5.72;4.78;;;9.90;61.30;;;9.90;41.97;95100.91;4973402;28;20213;-80
2021/04/26 07:38:38;;;;;;;6.72;4.95;;;10.00;59.80;;;9.93;41.65;95098.69;4993849;28;20601;-81
2021/04/26 07:41:05;;;;;;;6.57;4.90;;;10.10;59.50;;;10.00;41.63;95090.94;5021344;28;20451;-79
2021/04/26 07:43:33;;;;;;;7.88;5.43;;;10.10;59.60;;;10.07;41.40;95089.22;5010904;28;20233;-80
2021/04/26 07:45:59;;;;;;;8.63;5.13;;;10.20;59.70;;;10.13;41.49;95077.19;4980494;28;20232;-81
2021/04/26 07:48:26;;;;;;;4.78;3.80;;;10.20;59.50;;;10.18;41.01;95087.91;4971101;28;20221;-80
2021/04/26 07:50:53;;;;;;;6.35;4.93;;;10.40;59.50;;;10.20;41.30;95074.63;4955139;28;20274;-82
2021/04/26 07:53:20;;;;;;;5.47;4.07;;;10.30;59.00;;;10.24;41.14;95076.69;4975665;28;20331;-82
2021/04/26 07:55:47;;;;;;;5.57;4.10;;;10.40;58.80;;;10.30;41.12;95069.91;4990516;28;20726;-82
2021/04/26 07:58:13;;;;;;;8.05;3.83;;;10.40;58.80;;;10.35;41.12;95072.78;5001023;28;20348;-82
2021/04/26 08:00:40;;;;;;;5.25;4.00;;;10.40;58.80;;;10.36;40.84;95074.44;5010679;28;20201;-82
2021/04/26 08:03:07;;;;;;;6.35;3.97;;;10.50;58.70;;;10.44;41.14;95070.88;4979369;28;20312;-81
2021/04/26 08:05:34;;;;;;;10.77;3.80;;;10.60;58.70;;;10.49;40.92;95067.69;4997450;28;20231;-82
2021/04/26 08:08:02;;;;;;;5.47;3.92;;;10.60;58.60;;;10.55;40.23;95064.31;4997623;28;20228;-81
2021/04/26 08:10:29;;;;;;;5.18;3.53;;;10.70;59.30;;;10.51;40.28;95066.50;5028852;28;20583;-81
2021/04/26 08:12:56;;;;;;;5.95;3.92;;;10.70;57.90;;;10.53;40.07;95066.31;5000150;28;20254;-82
2021/04/26 08:15:22;;;;;;;5.13;3.60;;;10.70;57.60;;;10.53;39.76;95067.13;4978695;28;20264;-81
2021/04/26 08:17:49;;;;;;;5.90;3.38;;;10.70;57.50;;;10.57;40.08;95075.44;4996317;28;20290;-82
2021/04/26 08:20:16;;;;;;;5.00;3.30;;;10.70;57.40;;;10.54;39.85;95065.31;5012098;28;20217;-82
2021/04/26 08:22:43;;;;;;;5.28;3.50;;;10.80;57.40;;;10.61;40.09;95073.22;4993401;28;20265;-81
2021/04/26 08:25:10;;;;;;;5.75;4.05;;;10.80;57.50;;;10.62;39.96;95067.81;5017712;28;20671;-82
2021/04/26 08:27:37;;;;;;;5.38;4.03;;;10.80;57.30;;;10.64;39.52;95059.75;5015661;28;20221;-80
2021/04/26 08:30:08;;;;;;;6.15;3.78;;;10.80;57.40;;;10.68;39.91;95058.38;5053149;28;20227;-81
2021/04/26 08:32:35;;;;;;;5.25;3.30;;;10.80;57.50;;;10.69;40.20;95052.13;5028040;28;20252;-81
2021/04/26 08:35:05;;;;;;;5.47;3.85;;;10.90;57.60;;;10.77;39.87;95048.56;5035110;28;20226;-81
2021/04/26 08:37:31;;;;;;;14.40;4.43;;;10.90;57.60;;;10.84;39.88;95055.47;5043834;28;20224;-81
2021/04/26 08:39:59;;;;;;;5.28;3.58;;;10.90;57.50;;;10.93;39.71;95056.16;5020526;28;20641;-81
2021/04/26 08:42:26;;;;;;;5.65;3.60;;;10.90;57.60;;;11.01;39.88;95042.06;5015861;28;20289;-81
2021/04/26 08:44:53;;;;;;;4.13;3.28;;;11.00;57.50;;;11.10;39.75;95046.19;5005966;28;20242;-80
2021/04/26 08:47:23;;;;;;;4.10;3.45;;;11.10;57.40;;;11.15;39.52;95051.66;5023842;28;20311;-80
2021/04/26 08:49:58;;;;;;;4.88;3.60;;;11.20;57.50;;;11.23;39.43;95045.47;4997590;28;20689;-81
2021/04/26 08:52:25;;;;;;;6.32;3.83;;;11.20;57.00;;;11.29;39.20;95054.38;5005816;28;20231;-81
2021/04/26 08:54:54;;;;;;;5.40;3.85;;;11.30;57.10;;;11.34;39.08;95052.00;4991339;28;20659;-80
2021/04/26 08:57:21;;;;;;;5.18;3.65;;;11.30;57.00;;;11.40;39.13;95053.03;5009199;28;20225;-81
2021/04/26 08:59:48;;;;;;;4.03;3.30;;;11.40;56.60;;;11.46;38.76;95052.25;5014225;28;20228;-82
2021/04/26 09:02:14;;;;;;;5.00;3.53;;;11.40;56.40;;;11.47;38.44;95054.69;5011193;28;20224;-81
2021/04/26 09:04:55;;;;;;;4.82;3.70;;;11.50;55.90;;;11.51;38.16;95045.44;5022563;28;20212;-82
2021/04/26 09:07:23;;;;;;;7.68;3.55;;;11.50;55.70;;;11.58;38.30;95048.06;4993322;28;20232;-82
2021/04/26 09:09:54;;;;;;;5.03;3.28;;;11.60;55.80;;;11.65;38.75;95042.88;4990575;28;20232;-83
2021/04/26 09:12:31;;;;;;;7.10;3.33;;;11.60;55.90;;;11.69;38.16;95042.28;4993502;28;20225;-81
2021/04/26 09:15:04;;;;;;;4.68;3.33;;;11.70;55.90;;;11.76;38.43;95036.25;4977932;28;20612;-81
2021/04/26 09:17:44;;;;;;;4.32;2.90;;;11.80;56.00;;;11.78;38.47;95026.31;5013549;28;20240;-80
2021/04/26 09:20:20;;;;;;;5.68;3.75;;;11.80;56.00;;;11.84;38.50;95015.84;4963789;28;20226;-81
2021/04/26 09:22:56;;;;;;;5.03;3.28;;;11.80;56.00;;;11.91;38.42;95009.81;4978958;28;20252;-81
2021/04/26 09:25:40;;;;;;;7.03;3.60;;;11.90;56.10;;;12.00;38.34;95019.19;4980064;28;20713;-81
2021/04/26 09:28:12;;;;;;;5.97;4.30;;;12.00;56.30;;;12.12;38.22;95011.50;4982956;28;20232;-81
2021/04/26 09:30:51;;;;;;;5.78;3.83;;;12.00;56.20;;;12.22;38.07;95011.94;4976855;28;20602;-81
2021/04/26 09:33:39;;;;;;;5.70;3.88;;;12.10;56.30;;;12.19;38.04;95009.69;4992472;28;20232;-80
2021/04/26 09:36:20;;;;;;;5.10;3.85;;;12.20;56.00;;;12.23;37.67;95004.84;4978503;28;20216;-81
2021/04/26 09:38:54;;;;;;;6.35;3.80;;;12.20;55.30;;;12.18;37.66;94994.94;4989457;28;20239;-81
2021/04/26 09:41:30;;;;;;;6.05;3.72;;;12.30;55.70;;;12.21;37.86;94988.50;5024486;28;20618;-82
2021/04/26 09:43:59;;;;;;;20.33;4.50;;;12.30;55.60;;;12.27;37.80;94988.47;4990240;28;20243;-80
2021/04/26 09:46:47;;;;;;;5.57;3.72;;;12.40;55.70;;;12.41;37.83;94991.13;5008752;28;20723;-82
2021/04/26 09:49:26;;;;;;;4.20;3.47;;;12.40;55.70;;;12.55;37.59;94989.31;4988649;28;20204;-81
2021/04/26 09:51:58;;;;;;;5.05;3.67;;;12.50;55.60;;;12.65;37.31;94981.84;5005825;28;20244;-81
2021/04/26 09:54:37;;;;;;;4.47;3.78;;;12.60;55.40;;;12.74;37.10;94972.72;4985610;28;20211;-81
2021/04/26 09:57:05;;;;;;;5.07;3.50;;;12.70;54.70;;;12.84;37.60;94971.50;5002907;28;20262;-81
2021/04/26 09:59:33;;;;;;;5.15;3.78;;;12.70;55.40;;;13.02;37.15;94984.81;4991992;28;20196;-81
2021/04/26 10:02:02;;;;;;;4.68;3.88;;;12.90;55.70;;;13.19;37.24;94976.50;5011943;28;20303;-82
2021/04/26 10:04:30;;;;;;;5.07;3.35;;;13.00;55.60;;;13.35;37.15;94980.50;5008611;28;20228;-81
2021/04/26 10:06:57;;;;;;;6.15;4.22;;;13.10;55.30;;;13.46;37.00;94974.63;4995732;28;20220;-82
2021/04/26 10:09:26;;;;;;;5.55;3.78;;;13.20;55.50;;;13.59;37.18;94973.78;5013363;28;20208;-81
2021/04/26 10:11:54;;;;;;;7.32;4.30;;;13.30;55.60;;;13.74;36.72;94970.88;4969831;28;20242;-82
2021/04/26 10:14:21;;;;;;;4.32;3.50;;;13.50;55.20;;;13.88;36.89;94972.41;4971868;28;20281;-81
2021/04/26 10:17:11;;;;;;;7.55;3.95;;;13.60;55.20;;;14.00;36.28;94966.47;4971099;28;20236;-82
2021/04/26 10:19:45;;;;;;;4.43;3.50;;;13.70;54.50;;;14.12;36.61;94962.13;4973448;28;20204;-81
2021/04/26 10:22:14;;;;;;;4.43;3.58;;;13.80;54.70;;;14.24;36.31;94957.00;4971489;28;20656;-81
2021/04/26 10:24:54;;;;;;;5.30;4.32;;;14.00;54.80;;;14.35;36.21;94947.59;4971244;28;20251;-82
2021/04/26 10:27:32;;;;;;;5.80;3.90;;;14.10;55.50;;;14.46;35.72;94948.72;4972949;28;20220;-82
2021/04/26 10:30:13;;;;;;;5.43;3.83;;;14.20;53.60;;;14.44;35.41;94942.84;4991415;28;20344;-81
2021/04/26 10:33:05;;;;;;;4.97;4.20;;;14.30;53.30;;;14.29;35.41;94932.63;5009622;28;20279;-82
2021/04/26 10:35:46;;;;;;;5.72;4.20;;;14.30;53.20;;;14.14;35.29;94932.94;5009102;28;20254;-82
2021/04/26 10:38:46;;;;;;;4.30;3.65;;;14.30;52.80;;;14.07;35.75;94927.69;4981085;28;20213;-81
2021/04/26 10:41:49;;;;;;;5.63;4.28;;;14.30;53.50;;;14.06;35.62;94928.69;4955795;28;20249;-82
2021/04/26 10:44:37;;;;;;;6.65;4.57;;;14.30;53.30;;;14.01;35.48;94920.63;4992648;28;20641;-82
2021/04/26 10:47:21;;;;;;;5.53;3.67;;;14.20;53.10;;;13.97;35.63;94922.88;4992239;28;20737;-81
2021/04/26 10:50:00;;;;;;;5.20;3.67;;;14.20;53.00;;;14.00;35.35;94919.00;4997226;28;20202;-83